sensor_id;sensor_type;location;lat;lon;timestamp;P1;durP1;ratioP1;P2;durP2;ratioP2
50549;SDS011;36505;52.512;13.460;2023-02-28T00:01:29;8.00;;;3.35;;
50549;SDS011;36505;52.512;13.460;2023-02-28T00:03:55;11.38;;;3.90;;
50549;SDS011;36505;52.512;13.460;2023-02-28T00:06:21;6.10;;;3.20;;
50549;SDS011;36505;52.512;13.460;2023-02-28T00:08:47;7.85;;;3.10;;
50549;SDS011;36505;52.512;13.460;2023-02-28T00:11:13;7.40;;;3.67;;
50549;SDS011;36505;52.512;13.460;2023-02-28T00:13:40;8.90;;;3.42;;
50549;SDS011;36505;52.512;13.460;2023-02-28T00:16:09;8.10;;;3.22;;
50549;SDS011;36505;52.512;13.460;2023-02-28T00:18:38;7.97;;;2.92;;
50549;SDS011;36505;52.512;13.460;2023-02-28T00:21:04;6.57;;;2.83;;
50549;SDS011;36505;52.512;13.460;2023-02-28T00:23:30;7.85;;;3.05;;
50549;SDS011;36505;52.512;13.460;2023-02-28T00:25:55;7.00;;;2.47;;
50549;SDS011;36505;52.512;13.460;2023-02-28T00:28:20;4.90;;;2.50;;
50549;SDS011;36505;52.512;13.460;2023-02-28T00:30:46;8.43;;;2.88;;
50549;SDS011;36505;52.512;13.460;2023-02-28T00:33:12;5.80;;;3.28;;
50549;SDS011;36505;52.512;13.460;2023-02-28T00:35:38;9.65;;;4.32;;
50549;SDS011;36505;52.512;13.460;2023-02-28T00:38:03;7.05;;;2.97;;
50549;SDS011;36505;52.512;13.460;2023-02-28T00:40:29;7.43;;;2.63;;
50549;SDS011;36505;52.512;13.460;2023-02-28T00:42:55;11.02;;;3.50;;
50549;SDS011;36505;52.512;13.460;2023-02-28T00:45:20;8.32;;;3.00;;
50549;SDS011;36505;52.512;13.460;2023-02-28T00:47:46;10.10;;;3.35;;
50549;SDS011;36505;52.512;13.460;2023-02-28T00:50:14;5.85;;;2.60;;
50549;SDS011;36505;52.512;13.460;2023-02-28T00:52:41;10.60;;;3.55;;
50549;SDS011;36505;52.512;13.460;2023-02-28T00:55:06;8.02;;;3.17;;
50549;SDS011;36505;52.512;13.460;2023-02-28T00:57:32;4.93;;;2.92;;
50549;SDS011;36505;52.512;13.460;2023-02-28T00:59:57;6.68;;;3.20;;
50549;SDS011;36505;52.512;13.460;2023-02-28T01:02:23;6.57;;;3.05;;
50549;SDS011;36505;52.512;13.460;2023-02-28T01:04:48;10.30;;;3.85;;
50549;SDS011;36505;52.512;13.460;2023-02-28T01:07:14;8.13;;;3.53;;
50549;SDS011;36505;52.512;13.460;2023-02-28T01:09:40;7.63;;;3.83;;
50549;SDS011;36505;52.512;13.460;2023-02-28T01:12:06;6.72;;;3.22;;
50549;SDS011;36505;52.512;13.460;2023-02-28T01:14:33;11.38;;;3.28;;
50549;SDS011;36505;52.512;13.460;2023-02-28T01:16:59;9.07;;;3.78;;
50549;SDS011;36505;52.512;13.460;2023-02-28T01:19:24;10.25;;;4.07;;
50549;SDS011;36505;52.512;13.460;2023-02-28T01:21:50;9.77;;;4.18;;
50549;SDS011;36505;52.512;13.460;2023-02-28T01:24:15;8.98;;;3.53;;
50549;SDS011;36505;52.512;13.460;2023-02-28T01:26:40;9.40;;;3.60;;
50549;SDS011;36505;52.512;13.460;2023-02-28T01:29:06;8.18;;;3.20;;
50549;SDS011;36505;52.512;13.460;2023-02-28T01:31:31;6.72;;;3.20;;
50549;SDS011;36505;52.512;13.460;2023-02-28T01:33:56;11.98;;;3.35;;
50549;SDS011;36505;52.512;13.460;2023-02-28T01:36:23;12.18;;;4.00;;
50549;SDS011;36505;52.512;13.460;2023-02-28T01:38:49;8.23;;;3.40;;
50549;SDS011;36505;52.512;13.460;2023-02-28T01:41:19;9.57;;;3.75;;
50549;SDS011;36505;52.512;13.460;2023-02-28T01:46:10;8.95;;;3.20;;
50549;SDS011;36505;52.512;13.460;2023-02-28T01:48:37;11.43;;;3.58;;
50549;SDS011;36505;52.512;13.460;2023-02-28T01:51:10;7.50;;;3.63;;
50549;SDS011;36505;52.512;13.460;2023-02-28T01:53:44;9.05;;;4.20;;
50549;SDS011;36505;52.512;13.460;2023-02-28T01:56:13;10.60;;;3.85;;
50549;SDS011;36505;52.512;13.460;2023-02-28T01:58:48;11.32;;;4.00;;
50549;SDS011;36505;52.512;13.460;2023-02-28T02:01:16;6.97;;;3.67;;
50549;SDS011;36505;52.512;13.460;2023-02-28T02:03:56;6.60;;;3.40;;
50549;SDS011;36505;52.512;13.460;2023-02-28T02:06:27;8.70;;;4.05;;
50549;SDS011;36505;52.512;13.460;2023-02-28T02:08:55;9.45;;;3.80;;
50549;SDS011;36505;52.512;13.460;2023-02-28T02:11:21;9.10;;;3.65;;
50549;SDS011;36505;52.512;13.460;2023-02-28T02:35:56;9.60;;;4.47;;
50549;SDS011;36505;52.512;13.460;2023-02-28T02:39:07;9.25;;;4.40;;
50549;SDS011;36505;52.512;13.460;2023-02-28T02:44:13;9.52;;;4.18;;
50549;SDS011;36505;52.512;13.460;2023-02-28T02:47:01;10.50;;;4.13;;
50549;SDS011;36505;52.512;13.460;2023-02-28T02:49:32;8.30;;;4.43;;
50549;SDS011;36505;52.512;13.460;2023-02-28T02:52:08;11.85;;;4.60;;
50549;SDS011;36505;52.512;13.460;2023-02-28T02:54:38;15.07;;;4.65;;
50549;SDS011;36505;52.512;13.460;2023-02-28T02:57:08;7.82;;;3.95;;
50549;SDS011;36505;52.512;13.460;2023-02-28T02:59:38;13.32;;;4.95;;
50549;SDS011;36505;52.512;13.460;2023-02-28T03:02:06;10.50;;;4.10;;
50549;SDS011;36505;52.512;13.460;2023-02-28T03:04:36;8.88;;;4.10;;
50549;SDS011;36505;52.512;13.460;2023-02-28T03:07:06;9.35;;;4.57;;
50549;SDS011;36505;52.512;13.460;2023-02-28T03:09:32;10.57;;;4.90;;
50549;SDS011;36505;52.512;13.460;2023-02-28T03:12:00;16.40;;;5.68;;
50549;SDS011;36505;52.512;13.460;2023-02-28T03:23:31;7.93;;;4.30;;
50549;SDS011;36505;52.512;13.460;2023-02-28T03:26:15;6.65;;;4.05;;
50549;SDS011;36505;52.512;13.460;2023-02-28T03:31:33;12.15;;;4.70;;
50549;SDS011;36505;52.512;13.460;2023-02-28T03:34:06;10.95;;;5.70;;
50549;SDS011;36505;52.512;13.460;2023-02-28T03:36:48;10.55;;;4.32;;
50549;SDS011;36505;52.512;13.460;2023-02-28T03:39:27;10.82;;;4.88;;
50549;SDS011;36505;52.512;13.460;2023-02-28T03:42:02;12.45;;;4.70;;
50549;SDS011;36505;52.512;13.460;2023-02-28T03:47:22;9.65;;;4.85;;
50549;SDS011;36505;52.512;13.460;2023-02-28T03:49:51;13.10;;;4.70;;
50549;SDS011;36505;52.512;13.460;2023-02-28T03:52:38;12.23;;;4.65;;
50549;SDS011;36505;52.512;13.460;2023-02-28T03:55:10;8.40;;;4.50;;
50549;SDS011;36505;52.512;13.460;2023-02-28T04:03:03;12.20;;;4.75;;
50549;SDS011;36505;52.512;13.460;2023-02-28T04:05:29;9.13;;;4.53;;
50549;SDS011;36505;52.512;13.460;2023-02-28T04:08:03;9.23;;;4.90;;
50549;SDS011;36505;52.512;13.460;2023-02-28T04:10:32;8.07;;;4.65;;
50549;SDS011;36505;52.512;13.460;2023-02-28T04:12:57;10.98;;;5.00;;
50549;SDS011;36505;52.512;13.460;2023-02-28T04:15:23;12.65;;;4.45;;
50549;SDS011;36505;52.512;13.460;2023-02-28T04:17:49;16.10;;;5.40;;
50549;SDS011;36505;52.512;13.460;2023-02-28T04:20:15;7.43;;;4.40;;
50549;SDS011;36505;52.512;13.460;2023-02-28T04:22:40;9.73;;;4.65;;
50549;SDS011;36505;52.512;13.460;2023-02-28T04:25:06;8.88;;;4.38;;
50549;SDS011;36505;52.512;13.460;2023-02-28T04:27:32;7.22;;;4.28;;
50549;SDS011;36505;52.512;13.460;2023-02-28T04:29:57;10.07;;;4.70;;
50549;SDS011;36505;52.512;13.460;2023-02-28T04:32:22;8.77;;;4.22;;
50549;SDS011;36505;52.512;13.460;2023-02-28T04:34:48;14.80;;;4.85;;
50549;SDS011;36505;52.512;13.460;2023-02-28T04:37:13;11.65;;;4.80;;
50549;SDS011;36505;52.512;13.460;2023-02-28T04:39:39;13.77;;;5.05;;
50549;SDS011;36505;52.512;13.460;2023-02-28T04:42:05;13.07;;;5.40;;
50549;SDS011;36505;52.512;13.460;2023-02-28T04:44:30;11.88;;;4.95;;
50549;SDS011;36505;52.512;13.460;2023-02-28T04:46:56;12.25;;;4.72;;
50549;SDS011;36505;52.512;13.460;2023-02-28T04:49:21;13.30;;;5.80;;
50549;SDS011;36505;52.512;13.460;2023-02-28T04:51:47;10.15;;;5.47;;
50549;SDS011;36505;52.512;13.460;2023-02-28T04:54:12;17.88;;;5.45;;
50549;SDS011;36505;52.512;13.460;2023-02-28T04:56:38;12.40;;;5.18;;
50549;SDS011;36505;52.512;13.460;2023-02-28T04:59:03;10.93;;;5.32;;
50549;SDS011;36505;52.512;13.460;2023-02-28T05:01:30;11.60;;;5.72;;
50549;SDS011;36505;52.512;13.460;2023-02-28T05:03:59;13.13;;;5.80;;
50549;SDS011;36505;52.512;13.460;2023-02-28T05:06:26;11.90;;;4.90;;
50549;SDS011;36505;52.512;13.460;2023-02-28T05:08:53;14.93;;;5.22;;
50549;SDS011;36505;52.512;13.460;2023-02-28T05:11:26;10.82;;;5.35;;
50549;SDS011;36505;52.512;13.460;2023-02-28T05:13:52;17.08;;;4.65;;
50549;SDS011;36505;52.512;13.460;2023-02-28T05:16:18;11.68;;;4.95;;
50549;SDS011;36505;52.512;13.460;2023-02-28T05:18:44;11.85;;;5.38;;
50549;SDS011;36505;52.512;13.460;2023-02-28T05:21:27;9.95;;;4.50;;
50549;SDS011;36505;52.512;13.460;2023-02-28T05:23:56;10.20;;;4.78;;
50549;SDS011;36505;52.512;13.460;2023-02-28T05:26:24;11.13;;;5.53;;
50549;SDS011;36505;52.512;13.460;2023-02-28T05:28:50;10.88;;;5.20;;
50549;SDS011;36505;52.512;13.460;2023-02-28T05:31:16;15.75;;;5.72;;
50549;SDS011;36505;52.512;13.460;2023-02-28T05:33:41;15.07;;;6.78;;
50549;SDS011;36505;52.512;13.460;2023-02-28T05:36:07;13.48;;;5.57;;
50549;SDS011;36505;52.512;13.460;2023-02-28T05:38:32;13.07;;;5.70;;
50549;SDS011;36505;52.512;13.460;2023-02-28T05:40:58;16.88;;;5.82;;
50549;SDS011;36505;52.512;13.460;2023-02-28T05:43:23;13.45;;;5.35;;
50549;SDS011;36505;52.512;13.460;2023-02-28T05:45:49;19.02;;;5.30;;
50549;SDS011;36505;52.512;13.460;2023-02-28T05:48:14;14.10;;;5.95;;
50549;SDS011;36505;52.512;13.460;2023-02-28T05:50:40;14.10;;;6.18;;
50549;SDS011;36505;52.512;13.460;2023-02-28T05:53:07;19.67;;;6.53;;
50549;SDS011;36505;52.512;13.460;2023-02-28T05:55:33;16.75;;;6.80;;
50549;SDS011;36505;52.512;13.460;2023-02-28T05:58:00;18.30;;;6.05;;
50549;SDS011;36505;52.512;13.460;2023-02-28T06:00:26;13.35;;;5.00;;
50549;SDS011;36505;52.512;13.460;2023-02-28T06:02:52;17.48;;;5.50;;
50549;SDS011;36505;52.512;13.460;2023-02-28T06:05:21;14.40;;;5.18;;
50549;SDS011;36505;52.512;13.460;2023-02-28T06:07:47;20.08;;;6.97;;
50549;SDS011;36505;52.512;13.460;2023-02-28T06:10:13;21.95;;;6.80;;
50549;SDS011;36505;52.512;13.460;2023-02-28T06:12:38;17.40;;;5.85;;
50549;SDS011;36505;52.512;13.460;2023-02-28T06:15:04;19.65;;;6.32;;
50549;SDS011;36505;52.512;13.460;2023-02-28T06:17:30;16.08;;;6.93;;
50549;SDS011;36505;52.512;13.460;2023-02-28T06:19:55;26.02;;;6.70;;
50549;SDS011;36505;52.512;13.460;2023-02-28T06:22:20;21.58;;;6.43;;
50549;SDS011;36505;52.512;13.460;2023-02-28T06:24:46;21.08;;;8.50;;
50549;SDS011;36505;52.512;13.460;2023-02-28T06:27:12;20.40;;;7.20;;
50549;SDS011;36505;52.512;13.460;2023-02-28T06:29:37;18.83;;;6.50;;
50549;SDS011;36505;52.512;13.460;2023-02-28T06:32:04;19.02;;;5.93;;
50549;SDS011;36505;52.512;13.460;2023-02-28T06:34:30;22.13;;;7.18;;
50549;SDS011;36505;52.512;13.460;2023-02-28T06:36:55;20.60;;;7.63;;
50549;SDS011;36505;52.512;13.460;2023-02-28T06:39:21;22.60;;;6.60;;
50549;SDS011;36505;52.512;13.460;2023-02-28T06:41:46;20.85;;;8.55;;
50549;SDS011;36505;52.512;13.460;2023-02-28T06:44:16;17.17;;;7.47;;
50549;SDS011;36505;52.512;13.460;2023-02-28T06:46:42;19.13;;;6.30;;
50549;SDS011;36505;52.512;13.460;2023-02-28T06:49:09;17.13;;;6.07;;
50549;SDS011;36505;52.512;13.460;2023-02-28T06:51:36;18.25;;;5.55;;
50549;SDS011;36505;52.512;13.460;2023-02-28T06:54:03;18.13;;;6.82;;
50549;SDS011;36505;52.512;13.460;2023-02-28T06:56:28;23.40;;;6.32;;
50549;SDS011;36505;52.512;13.460;2023-02-28T06:58:54;15.70;;;6.18;;
50549;SDS011;36505;52.512;13.460;2023-02-28T07:01:21;17.33;;;6.15;;
50549;SDS011;36505;52.512;13.460;2023-02-28T07:03:48;17.83;;;6.47;;
50549;SDS011;36505;52.512;13.460;2023-02-28T07:06:17;20.30;;;6.72;;
50549;SDS011;36505;52.512;13.460;2023-02-28T07:08:47;15.65;;;5.97;;
50549;SDS011;36505;52.512;13.460;2023-02-28T07:11:16;24.20;;;7.57;;
50549;SDS011;36505;52.512;13.460;2023-02-28T07:13:42;14.95;;;6.30;;
50549;SDS011;36505;52.512;13.460;2023-02-28T07:16:09;21.05;;;7.47;;
50549;SDS011;36505;52.512;13.460;2023-02-28T07:18:36;12.40;;;5.13;;
50549;SDS011;36505;52.512;13.460;2023-02-28T07:21:03;15.20;;;6.10;;
50549;SDS011;36505;52.512;13.460;2023-02-28T07:23:30;17.73;;;6.85;;
50549;SDS011;36505;52.512;13.460;2023-02-28T07:25:56;24.70;;;6.82;;
50549;SDS011;36505;52.512;13.460;2023-02-28T07:28:21;13.80;;;6.43;;
50549;SDS011;36505;52.512;13.460;2023-02-28T07:30:47;19.67;;;6.18;;
50549;SDS011;36505;52.512;13.460;2023-02-28T07:33:13;20.67;;;6.15;;
50549;SDS011;36505;52.512;13.460;2023-02-28T07:35:39;20.42;;;7.47;;
50549;SDS011;36505;52.512;13.460;2023-02-28T07:38:04;16.40;;;5.30;;
50549;SDS011;36505;52.512;13.460;2023-02-28T07:40:29;15.55;;;6.00;;
50549;SDS011;36505;52.512;13.460;2023-02-28T07:42:55;14.38;;;5.55;;
50549;SDS011;36505;52.512;13.460;2023-02-28T07:45:20;16.92;;;5.15;;
50549;SDS011;36505;52.512;13.460;2023-02-28T07:47:46;11.32;;;5.50;;
50549;SDS011;36505;52.512;13.460;2023-02-28T07:50:12;14.55;;;5.80;;
50549;SDS011;36505;52.512;13.460;2023-02-28T07:52:39;13.70;;;4.82;;
50549;SDS011;36505;52.512;13.460;2023-02-28T07:55:05;11.27;;;5.28;;
50549;SDS011;36505;52.512;13.460;2023-02-28T07:57:32;10.75;;;4.68;;
50549;SDS011;36505;52.512;13.460;2023-02-28T07:59:57;12.40;;;5.18;;
50549;SDS011;36505;52.512;13.460;2023-02-28T08:02:23;11.82;;;3.70;;
50549;SDS011;36505;52.512;13.460;2023-02-28T08:04:48;7.13;;;3.42;;
50549;SDS011;36505;52.512;13.460;2023-02-28T08:07:14;10.65;;;3.20;;
50549;SDS011;36505;52.512;13.460;2023-02-28T08:09:41;6.68;;;2.67;;
50549;SDS011;36505;52.512;13.460;2023-02-28T08:12:06;6.30;;;3.20;;
50549;SDS011;36505;52.512;13.460;2023-02-28T08:14:33;8.05;;;3.15;;
50549;SDS011;36505;52.512;13.460;2023-02-28T08:16:59;13.15;;;2.78;;
50549;SDS011;36505;52.512;13.460;2023-02-28T08:19:24;8.63;;;3.20;;
50549;SDS011;36505;52.512;13.460;2023-02-28T08:21:49;6.38;;;3.38;;
50549;SDS011;36505;52.512;13.460;2023-02-28T08:24:15;7.40;;;2.88;;
50549;SDS011;36505;52.512;13.460;2023-02-28T08:26:40;6.55;;;2.83;;
50549;SDS011;36505;52.512;13.460;2023-02-28T08:29:06;4.32;;;2.70;;
50549;SDS011;36505;52.512;13.460;2023-02-28T08:31:31;7.47;;;3.17;;
50549;SDS011;36505;52.512;13.460;2023-02-28T08:33:56;4.53;;;2.67;;
50549;SDS011;36505;52.512;13.460;2023-02-28T08:36:23;8.50;;;3.35;;
50549;SDS011;36505;52.512;13.460;2023-02-28T08:38:49;12.70;;;3.10;;
50549;SDS011;36505;52.512;13.460;2023-02-28T08:41:14;5.03;;;2.63;;
50549;SDS011;36505;52.512;13.460;2023-02-28T08:43:40;5.47;;;2.00;;
50549;SDS011;36505;52.512;13.460;2023-02-28T08:46:06;3.20;;;1.92;;
50549;SDS011;36505;52.512;13.460;2023-02-28T08:48:33;6.35;;;2.40;;
50549;SDS011;36505;52.512;13.460;2023-02-28T08:51:01;18.25;;;12.00;;
50549;SDS011;36505;52.512;13.460;2023-02-28T08:53:28;4.15;;;2.20;;
50549;SDS011;36505;52.512;13.460;2023-02-28T08:55:58;5.22;;;2.42;;
50549;SDS011;36505;52.512;13.460;2023-02-28T08:58:25;6.40;;;3.08;;
50549;SDS011;36505;52.512;13.460;2023-02-28T09:00:51;3.10;;;1.85;;
50549;SDS011;36505;52.512;13.460;2023-02-28T09:03:16;4.63;;;2.25;;
50549;SDS011;36505;52.512;13.460;2023-02-28T09:05:51;6.47;;;2.65;;
50549;SDS011;36505;52.512;13.460;2023-02-28T09:08:28;4.70;;;2.28;;
50549;SDS011;36505;52.512;13.460;2023-02-28T09:10:55;2.95;;;1.88;;
50549;SDS011;36505;52.512;13.460;2023-02-28T09:13:22;4.72;;;2.28;;
50549;SDS011;36505;52.512;13.460;2023-02-28T09:15:51;5.95;;;2.03;;
50549;SDS011;36505;52.512;13.460;2023-02-28T09:18:16;4.13;;;1.90;;
50549;SDS011;36505;52.512;13.460;2023-02-28T09:20:42;4.50;;;1.65;;
50549;SDS011;36505;52.512;13.460;2023-02-28T09:23:08;2.63;;;1.73;;
50549;SDS011;36505;52.512;13.460;2023-02-28T09:25:35;4.32;;;2.42;;
50549;SDS011;36505;52.512;13.460;2023-02-28T09:28:01;12.00;;;6.93;;
50549;SDS011;36505;52.512;13.460;2023-02-28T09:30:27;6.22;;;2.50;;
50549;SDS011;36505;52.512;13.460;2023-02-28T09:32:53;6.45;;;2.33;;
50549;SDS011;36505;52.512;13.460;2023-02-28T09:35:20;3.28;;;1.95;;
50549;SDS011;36505;52.512;13.460;2023-02-28T09:37:47;5.03;;;1.80;;
50549;SDS011;36505;52.512;13.460;2023-02-28T09:40:14;3.40;;;1.70;;
50549;SDS011;36505;52.512;13.460;2023-02-28T09:42:44;3.47;;;1.70;;
50549;SDS011;36505;52.512;13.460;2023-02-28T09:45:33;8.65;;;2.20;;
50549;SDS011;36505;52.512;13.460;2023-02-28T09:48:11;4.25;;;1.90;;
50549;SDS011;36505;52.512;13.460;2023-02-28T09:50:41;5.57;;;2.53;;
50549;SDS011;36505;52.512;13.460;2023-02-28T09:53:24;3.22;;;2.10;;
50549;SDS011;36505;52.512;13.460;2023-02-28T09:56:04;4.45;;;1.77;;
50549;SDS011;36505;52.512;13.460;2023-02-28T10:01:18;7.05;;;3.13;;
50549;SDS011;36505;52.512;13.460;2023-02-28T10:06:22;4.18;;;2.03;;
50549;SDS011;36505;52.512;13.460;2023-02-28T10:11:26;4.57;;;2.00;;
50549;SDS011;36505;52.512;13.460;2023-02-28T10:18:47;4.05;;;2.08;;
50549;SDS011;36505;52.512;13.460;2023-02-28T10:21:20;5.50;;;2.17;;
50549;SDS011;36505;52.512;13.460;2023-02-28T10:23:49;4.60;;;2.10;;
50549;SDS011;36505;52.512;13.460;2023-02-28T10:26:21;4.30;;;1.98;;
50549;SDS011;36505;52.512;13.460;2023-02-28T10:28:48;3.85;;;2.25;;
50549;SDS011;36505;52.512;13.460;2023-02-28T10:31:18;3.63;;;1.83;;
50549;SDS011;36505;52.512;13.460;2023-02-28T10:33:44;2.38;;;1.63;;
50549;SDS011;36505;52.512;13.460;2023-02-28T10:36:17;5.03;;;2.30;;
50549;SDS011;36505;52.512;13.460;2023-02-28T10:38:45;4.93;;;2.05;;
50549;SDS011;36505;52.512;13.460;2023-02-28T10:41:13;4.82;;;2.05;;
50549;SDS011;36505;52.512;13.460;2023-02-28T10:43:40;4.50;;;2.33;;
50549;SDS011;36505;52.512;13.460;2023-02-28T10:51:08;7.47;;;2.35;;
50549;SDS011;36505;52.512;13.460;2023-02-28T10:56:15;6.55;;;2.42;;
50549;SDS011;36505;52.512;13.460;2023-02-28T11:01:38;3.80;;;1.98;;
50549;SDS011;36505;52.512;13.460;2023-02-28T11:06:46;10.70;;;5.57;;
50549;SDS011;36505;52.512;13.460;2023-02-28T11:09:18;5.38;;;2.22;;
50549;SDS011;36505;52.512;13.460;2023-02-28T11:11:49;3.70;;;2.05;;
50549;SDS011;36505;52.512;13.460;2023-02-28T11:14:17;6.30;;;2.60;;
50549;SDS011;36505;52.512;13.460;2023-02-28T11:16:49;7.75;;;2.58;;
50549;SDS011;36505;52.512;13.460;2023-02-28T11:19:20;4.95;;;1.80;;
50549;SDS011;36505;52.512;13.460;2023-02-28T11:21:55;6.47;;;2.58;;
50549;SDS011;36505;52.512;13.460;2023-02-28T11:24:30;5.90;;;2.28;;
50549;SDS011;36505;52.512;13.460;2023-02-28T11:27:02;5.18;;;2.47;;
50549;SDS011;36505;52.512;13.460;2023-02-28T11:29:31;4.95;;;2.80;;
50549;SDS011;36505;52.512;13.460;2023-02-28T11:34:45;21.38;;;3.85;;
50549;SDS011;36505;52.512;13.460;2023-02-28T11:37:18;3.38;;;1.73;;
50549;SDS011;36505;52.512;13.460;2023-02-28T11:39:44;4.68;;;2.45;;
50549;SDS011;36505;52.512;13.460;2023-02-28T11:44:48;9.70;;;4.18;;
50549;SDS011;36505;52.512;13.460;2023-02-28T11:47:24;5.15;;;2.45;;
50549;SDS011;36505;52.512;13.460;2023-02-28T11:50:07;6.57;;;3.40;;
50549;SDS011;36505;52.512;13.460;2023-02-28T11:58:14;5.07;;;2.72;;
50549;SDS011;36505;52.512;13.460;2023-02-28T12:09:10;6.28;;;2.33;;
50549;SDS011;36505;52.512;13.460;2023-02-28T12:12:02;6.05;;;3.00;;
50549;SDS011;36505;52.512;13.460;2023-02-28T12:25:38;6.65;;;2.03;;
50549;SDS011;36505;52.512;13.460;2023-02-28T12:28:14;7.90;;;3.00;;
50549;SDS011;36505;52.512;13.460;2023-02-28T12:30:50;7.82;;;2.45;;
50549;SDS011;36505;52.512;13.460;2023-02-28T12:33:22;4.70;;;2.17;;
50549;SDS011;36505;52.512;13.460;2023-02-28T12:35:57;4.95;;;2.17;;
50549;SDS011;36505;52.512;13.460;2023-02-28T12:38:27;6.45;;;2.13;;
50549;SDS011;36505;52.512;13.460;2023-02-28T12:41:03;9.50;;;4.40;;
50549;SDS011;36505;52.512;13.460;2023-02-28T12:43:46;4.75;;;2.38;;
50549;SDS011;36505;52.512;13.460;2023-02-28T12:46:24;6.97;;;2.80;;
50549;SDS011;36505;52.512;13.460;2023-02-28T12:48:57;3.80;;;2.05;;
50549;SDS011;36505;52.512;13.460;2023-02-28T12:51:26;6.65;;;2.45;;
50549;SDS011;36505;52.512;13.460;2023-02-28T12:56:27;4.50;;;2.28;;
50549;SDS011;36505;52.512;13.460;2023-02-28T12:59:21;3.60;;;1.90;;
50549;SDS011;36505;52.512;13.460;2023-02-28T13:10:00;7.10;;;2.60;;
50549;SDS011;36505;52.512;13.460;2023-02-28T13:12:29;8.10;;;2.47;;
50549;SDS011;36505;52.512;13.460;2023-02-28T13:15:02;5.50;;;2.63;;
50549;SDS011;36505;52.512;13.460;2023-02-28T13:17:36;8.48;;;2.78;;
50549;SDS011;36505;52.512;13.460;2023-02-28T13:20:03;4.35;;;2.13;;
50549;SDS011;36505;52.512;13.460;2023-02-28T13:22:42;7.00;;;2.20;;
50549;SDS011;36505;52.512;13.460;2023-02-28T13:27:51;6.00;;;2.03;;
50549;SDS011;36505;52.512;13.460;2023-02-28T13:35:48;9.50;;;2.90;;
50549;SDS011;36505;52.512;13.460;2023-02-28T13:38:21;6.75;;;2.95;;
50549;SDS011;36505;52.512;13.460;2023-02-28T13:40:47;6.40;;;2.75;;
50549;SDS011;36505;52.512;13.460;2023-02-28T13:43:13;5.70;;;2.63;;
50549;SDS011;36505;52.512;13.460;2023-02-28T13:45:55;4.97;;;2.40;;
50549;SDS011;36505;52.512;13.460;2023-02-28T13:48:35;7.75;;;2.30;;
50549;SDS011;36505;52.512;13.460;2023-02-28T13:51:16;6.18;;;2.85;;
50549;SDS011;36505;52.512;13.460;2023-02-28T13:56:50;7.38;;;2.30;;
50549;SDS011;36505;52.512;13.460;2023-02-28T14:05:00;4.47;;;2.83;;
50549;SDS011;36505;52.512;13.460;2023-02-28T14:07:31;6.68;;;2.50;;
50549;SDS011;36505;52.512;13.460;2023-02-28T14:10:04;3.90;;;2.10;;
50549;SDS011;36505;52.512;13.460;2023-02-28T14:15:28;4.50;;;2.60;;
50549;SDS011;36505;52.512;13.460;2023-02-28T14:17:55;8.63;;;2.72;;
50549;SDS011;36505;52.512;13.460;2023-02-28T14:20:25;4.82;;;2.72;;
50549;SDS011;36505;52.512;13.460;2023-02-28T14:25:39;4.38;;;2.17;;
50549;SDS011;36505;52.512;13.460;2023-02-28T14:28:18;5.43;;;2.75;;
50549;SDS011;36505;52.512;13.460;2023-02-28T14:31:07;6.10;;;2.38;;
50549;SDS011;36505;52.512;13.460;2023-02-28T14:33:48;7.03;;;3.35;;
50549;SDS011;36505;52.512;13.460;2023-02-28T14:36:33;5.45;;;2.50;;
50549;SDS011;36505;52.512;13.460;2023-02-28T14:39:05;5.60;;;2.65;;
50549;SDS011;36505;52.512;13.460;2023-02-28T14:44:13;3.88;;;2.30;;
50549;SDS011;36505;52.512;13.460;2023-02-28T14:46:53;6.78;;;2.63;;
50549;SDS011;36505;52.512;13.460;2023-02-28T14:52:03;6.15;;;2.90;;
50549;SDS011;36505;52.512;13.460;2023-02-28T14:54:52;7.07;;;2.95;;
50549;SDS011;36505;52.512;13.460;2023-02-28T14:57:25;5.80;;;3.17;;
50549;SDS011;36505;52.512;13.460;2023-02-28T15:00:07;5.15;;;2.72;;
50549;SDS011;36505;52.512;13.460;2023-02-28T15:02:39;6.10;;;2.65;;
50549;SDS011;36505;52.512;13.460;2023-02-28T15:07:37;11.15;;;3.53;;
50549;SDS011;36505;52.512;13.460;2023-02-28T15:10:19;11.13;;;3.00;;
50549;SDS011;36505;52.512;13.460;2023-02-28T15:12:56;8.10;;;3.35;;
50549;SDS011;36505;52.512;13.460;2023-02-28T15:17:55;7.80;;;3.92;;
50549;SDS011;36505;52.512;13.460;2023-02-28T15:20:22;11.18;;;3.17;;
50549;SDS011;36505;52.512;13.460;2023-02-28T15:22:50;5.45;;;2.60;;
50549;SDS011;36505;52.512;13.460;2023-02-28T15:25:20;5.95;;;2.58;;
50549;SDS011;36505;52.512;13.460;2023-02-28T15:27:49;7.88;;;2.88;;
50549;SDS011;36505;52.512;13.460;2023-02-28T15:30:26;10.43;;;3.35;;
50549;SDS011;36505;52.512;13.460;2023-02-28T15:35:38;3.50;;;2.42;;
50549;SDS011;36505;52.512;13.460;2023-02-28T15:40:52;6.50;;;3.28;;
50549;SDS011;36505;52.512;13.460;2023-02-28T15:45:45;4.40;;;2.20;;
50549;SDS011;36505;52.512;13.460;2023-02-28T15:48:20;9.07;;;3.38;;
50549;SDS011;36505;52.512;13.460;2023-02-28T15:51:18;7.03;;;2.40;;
50549;SDS011;36505;52.512;13.460;2023-02-28T15:53:47;7.45;;;2.53;;
50549;SDS011;36505;52.512;13.460;2023-02-28T15:58:47;4.20;;;2.25;;
50549;SDS011;36505;52.512;13.460;2023-02-28T16:01:17;8.27;;;3.25;;
50549;SDS011;36505;52.512;13.460;2023-02-28T16:03:47;11.88;;;3.17;;
50549;SDS011;36505;52.512;13.460;2023-02-28T16:08:46;6.47;;;3.08;;
50549;SDS011;36505;52.512;13.460;2023-02-28T16:11:13;6.30;;;2.67;;
50549;SDS011;36505;52.512;13.460;2023-02-28T16:13:39;6.95;;;2.70;;
50549;SDS011;36505;52.512;13.460;2023-02-28T16:16:05;7.65;;;3.13;;
50549;SDS011;36505;52.512;13.460;2023-02-28T16:18:30;5.97;;;2.92;;
50549;SDS011;36505;52.512;13.460;2023-02-28T16:20:56;6.47;;;2.97;;
50549;SDS011;36505;52.512;13.460;2023-02-28T16:23:21;5.95;;;3.08;;
50549;SDS011;36505;52.512;13.460;2023-02-28T16:25:47;7.97;;;3.15;;
50549;SDS011;36505;52.512;13.460;2023-02-28T16:28:15;5.45;;;2.83;;
50549;SDS011;36505;52.512;13.460;2023-02-28T16:30:41;6.72;;;3.22;;
50549;SDS011;36505;52.512;13.460;2023-02-28T16:33:07;7.57;;;2.95;;
50549;SDS011;36505;52.512;13.460;2023-02-28T16:35:33;6.57;;;2.70;;
50549;SDS011;36505;52.512;13.460;2023-02-28T16:37:58;10.02;;;2.45;;
50549;SDS011;36505;52.512;13.460;2023-02-28T16:40:25;10.52;;;3.28;;
50549;SDS011;36505;52.512;13.460;2023-02-28T16:42:51;7.03;;;2.58;;
50549;SDS011;36505;52.512;13.460;2023-02-28T16:45:22;6.28;;;2.80;;
50549;SDS011;36505;52.512;13.460;2023-02-28T16:47:49;5.63;;;3.15;;
50549;SDS011;36505;52.512;13.460;2023-02-28T16:50:17;7.10;;;2.67;;
50549;SDS011;36505;52.512;13.460;2023-02-28T16:52:43;6.95;;;3.03;;
50549;SDS011;36505;52.512;13.460;2023-02-28T16:55:09;7.32;;;3.00;;
50549;SDS011;36505;52.512;13.460;2023-02-28T16:57:35;6.00;;;2.65;;
50549;SDS011;36505;52.512;13.460;2023-02-28T17:00:01;8.65;;;3.13;;
50549;SDS011;36505;52.512;13.460;2023-02-28T17:02:26;7.93;;;4.05;;
50549;SDS011;36505;52.512;13.460;2023-02-28T17:04:51;4.82;;;2.92;;
50549;SDS011;36505;52.512;13.460;2023-02-28T17:07:17;7.38;;;2.92;;
50549;SDS011;36505;52.512;13.460;2023-02-28T17:09:43;12.05;;;3.20;;
50549;SDS011;36505;52.512;13.460;2023-02-28T17:12:08;6.50;;;2.88;;
50549;SDS011;36505;52.512;13.460;2023-02-28T17:14:34;5.68;;;2.78;;
50549;SDS011;36505;52.512;13.460;2023-02-28T17:16:59;9.48;;;3.33;;
50549;SDS011;36505;52.512;13.460;2023-02-28T17:19:25;7.93;;;3.50;;
50549;SDS011;36505;52.512;13.460;2023-02-28T17:21:50;8.30;;;3.70;;